Time;durP1;ratioP1;P1;durP2;ratioP2;P2;SDS_P1;SDS_P2;PMS_P1;PMS_P2;Temp;Humidity;BMP_temperature;BMP_pressure;BME280_temperature;BME280_humidity;BME280_pressure;Samples;Min_cycle;Max_cycle;Signal;HPM_P1;HPM_P2
2023/03/04 00:01:12;;;;;;;19.60;1.05;;;6.10;99.90;;;;;;6216516;23;20000;-85
2023/03/04 00:03:37;;;;;;;15.75;1.10;;;6.10;99.90;;;;;;6216759;23;20057;-85
2023/03/04 00:06:03;;;;;;;17.80;1.38;;;6.10;99.90;;;;;;6216260;23;20319;-85
2023/03/04 00:08:29;;;;;;;16.98;2.45;;;6.10;99.90;;;;;;6216903;23;20330;-86
2023/03/04 00:10:55;;;;;;;13.25;1.20;;;6.00;99.90;;;;;;6216532;23;20000;-85
2023/03/04 00:13:21;;;;;;;12.10;1.27;;;6.10;99.90;;;;;;6243379;23;20016;-85
2023/03/04 00:15:47;;;;;;;11.15;0.85;;;6.00;99.90;;;;;;6216987;23;20040;-86
2023/03/04 00:18:13;;;;;;;16.55;1.90;;;6.00;99.90;;;;;;6215590;23;20078;-86
2023/03/04 00:20:38;;;;;;;14.98;1.40;;;6.00;99.90;;;;;;6243531;23;20354;-86
2023/03/04 00:23:04;;;;;;;17.15;1.25;;;6.00;99.90;;;;;;6215983;23;20354;-86
2023/03/04 00:25:30;;;;;;;13.48;1.20;;;6.00;99.90;;;;;;6243305;23;20046;-86
2023/03/04 00:27:57;;;;;;;17.83;1.52;;;6.00;99.90;;;;;;6216151;23;20415;-85
2023/03/04 00:30:22;;;;;;;11.50;1.27;;;6.00;99.90;;;;;;6216965;23;20000;-86
2023/03/04 00:32:48;;;;;;;12.25;1.33;;;6.00;99.90;;;;;;6216664;22;20126;-85
2023/03/04 00:35:14;;;;;;;20.30;1.23;;;6.00;99.90;;;;;;6242957;23;20004;-86
2023/03/04 00:37:39;;;;;;;12.38;1.00;;;6.00;99.90;;;;;;6216104;23;20011;-86
2023/03/04 00:40:06;;;;;;;14.13;1.38;;;6.00;99.90;;;;;;6216595;23;20457;-85
2023/03/04 00:42:31;;;;;;;18.25;2.03;;;6.00;99.90;;;;;;6217179;23;20443;-86
2023/03/04 00:44:57;;;;;;;13.60;1.05;;;6.00;99.90;;;;;;6242373;23;20000;-86
2023/03/04 00:47:22;;;;;;;15.82;1.20;;;6.00;99.90;;;;;;6215194;23;20004;-86
2023/03/04 00:49:48;;;;;;;22.38;1.33;;;6.00;99.90;;;;;;6217038;23;20049;-86
2023/03/04 00:52:13;;;;;;;10.52;0.77;;;6.00;99.90;;;;;;6216629;23;20069;-85
2023/03/04 00:54:39;;;;;;;8.38;1.10;;;6.00;99.90;;;;;;6216511;23;20027;-86
2023/03/04 00:57:04;;;;;;;12.73;1.35;;;6.00;99.90;;;;;;6215631;23;20518;-86
2023/03/04 00:59:30;;;;;;;15.32;1.13;;;5.90;99.90;;;;;;6216955;23;20197;-86
2023/03/04 01:01:55;;;;;;;9.07;1.05;;;6.00;99.90;;;;;;6216696;23;20492;-86
2023/03/04 01:04:21;;;;;;;13.10;1.10;;;5.90;99.90;;;;;;6216451;23;20119;-85
2023/03/04 01:06:46;;;;;;;13.02;1.08;;;5.90;99.90;;;;;;6216939;23;20000;-85
2023/03/04 01:09:12;;;;;;;15.13;0.70;;;5.90;99.90;;;;;;6216036;23;20000;-85
2023/03/04 01:11:38;;;;;;;17.98;1.15;;;5.90;99.90;;;;;;6216417;23;20133;-85
2023/03/04 01:14:03;;;;;;;11.95;1.10;;;5.90;99.90;;;;;;6216049;23;20066;-86
2023/03/04 01:16:29;;;;;;;12.73;0.80;;;5.90;99.90;;;;;;6216169;23;20004;-85
2023/03/04 01:18:54;;;;;;;16.50;1.05;;;5.90;99.90;;;;;;6243292;23;20000;-86
2023/03/04 01:21:20;;;;;;;16.10;0.80;;;5.90;99.90;;;;;;6214838;23;20016;-85
2023/03/04 01:23:46;;;;;;;13.23;0.60;;;5.90;99.90;;;;;;6216402;23;20016;-85
2023/03/04 01:26:12;;;;;;;11.35;0.95;;;5.90;99.90;;;;;;6242991;23;20472;-85
2023/03/04 01:28:38;;;;;;;14.77;0.98;;;5.90;99.90;;;;;;6243087;23;20023;-85
2023/03/04 01:31:04;;;;;;;8.88;0.60;;;5.90;99.90;;;;;;6215703;23;20042;-85
2023/03/04 01:33:30;;;;;;;9.65;0.60;;;5.90;99.90;;;;;;6216475;23;20012;-86
2023/03/04 01:35:57;;;;;;;20.38;0.75;;;5.90;99.90;;;;;;6216950;23;20004;-86
2023/03/04 01:38:23;;;;;;;16.70;1.52;;;5.90;99.90;;;;;;6217792;23;20030;-86
2023/03/04 01:40:49;;;;;;;11.80;0.60;;;5.90;99.90;;;;;;6217849;23;20011;-85
2023/03/04 01:43:20;;;;;;;11.95;1.10;;;5.90;99.90;;;;;;6217597;23;20439;-86
2023/03/04 01:45:48;;;;;;;16.73;0.93;;;5.90;99.90;;;;;;6218408;23;20004;-86
2023/03/04 01:48:17;;;;;;;11.05;0.70;;;5.90;99.90;;;;;;6217356;23;20054;-85
2023/03/04 01:50:42;;;;;;;12.70;0.90;;;5.90;99.90;;;;;;6244622;23;20099;-86
2023/03/04 01:53:26;;;;;;;10.52;1.15;;;5.90;99.90;;;;;;6217858;23;20036;-85
2023/03/04 01:55:54;;;;;;;11.32;0.73;;;5.90;99.90;;;;;;6218537;23;20083;-85
2023/03/04 01:58:20;;;;;;;12.43;0.70;;;5.80;99.90;;;;;;6218082;23;20901;-85
2023/03/04 02:00:46;;;;;;;14.50;1.08;;;5.80;99.90;;;;;;6218286;23;20083;-85
2023/03/04 02:03:20;;;;;;;9.75;1.02;;;5.80;99.90;;;;;;6217141;23;20095;-85
2023/03/04 02:05:48;;;;;;;16.25;2.55;;;5.80;99.90;;;;;;6218408;23;20445;-86
2023/03/04 02:08:17;;;;;;;14.38;0.82;;;5.80;99.90;;;;;;6217804;23;20402;-85
2023/03/04 02:10:43;;;;;;;9.48;1.25;;;5.80;99.90;;;;;;6218518;23;20004;-85
2023/03/04 02:13:10;;;;;;;11.77;0.80;;;5.80;99.90;;;;;;6217396;23;20435;-85
2023/03/04 02:15:35;;;;;;;6.85;0.80;;;5.80;99.90;;;;;;6244947;23;20071;-85
2023/03/04 02:18:01;;;;;;;13.85;1.77;;;5.80;99.90;;;;;;6218176;23;20038;-85
2023/03/04 02:20:53;;;;;;;8.20;0.77;;;5.80;99.90;;;;;;6217551;23;20016;-85
2023/03/04 02:23:32;;;;;;;11.75;0.65;;;5.80;99.90;;;;;;6217738;23;20023;-85
2023/03/04 02:26:16;;;;;;;12.82;0.93;;;5.80;99.90;;;;;;6218347;23;20001;-85
2023/03/04 02:28:42;;;;;;;16.35;1.65;;;5.80;99.90;;;;;;6217971;23;20012;-85
2023/03/04 02:31:35;;;;;;;8.48;0.80;;;5.80;99.90;;;;;;6244469;23;20065;-85
2023/03/04 02:34:08;;;;;;;13.27;0.80;;;5.80;99.90;;;;;;6212695;23;20046;-86
2023/03/04 02:36:35;;;;;;;13.57;1.17;;;5.80;99.90;;;;;;6218267;23;20011;-85
2023/03/04 02:39:05;;;;;;;20.55;1.30;;;5.80;99.90;;;;;;6244553;23;20659;-85
2023/03/04 02:41:31;;;;;;;11.63;0.82;;;5.80;99.90;;;;;;6217735;23;20345;-85
2023/03/04 02:43:57;;;;;;;9.80;0.70;;;5.80;99.90;;;;;;6217799;23;20035;-86
2023/03/04 02:46:23;;;;;;;13.63;0.75;;;5.80;99.90;;;;;;6244674;23;20023;-85
2023/03/04 02:48:50;;;;;;;19.50;0.85;;;5.70;99.90;;;;;;6216735;23;20008;-85
2023/03/04 02:51:15;;;;;;;12.10;0.63;;;5.70;99.90;;;;;;6217753;23;20087;-85
2023/03/04 02:53:41;;;;;;;12.75;0.68;;;5.70;99.90;;;;;;6218010;23;20039;-85
2023/03/04 02:56:07;;;;;;;10.85;0.50;;;5.70;99.90;;;;;;6217347;23;20509;-85
2023/03/04 02:58:32;;;;;;;13.13;0.90;;;5.70;99.90;;;;;;6217992;23;20000;-86
2023/03/04 03:00:58;;;;;;;12.63;0.75;;;5.70;99.90;;;;;;6218303;23;20046;-85
2023/03/04 03:03:23;;;;;;;12.35;0.70;;;5.70;99.90;;;;;;6216762;23;20012;-85
2023/03/04 03:05:49;;;;;;;10.05;0.70;;;5.80;99.90;;;;;;6217953;23;20008;-85
2023/03/04 03:08:15;;;;;;;15.40;1.45;;;5.80;99.90;;;;;;6217183;23;20000;-85
2023/03/04 03:10:40;;;;;;;8.75;0.50;;;5.80;99.90;;;;;;6218066;23;20019;-85
2023/03/04 03:13:06;;;;;;;9.20;0.60;;;5.80;99.90;;;;;;6242168;23;20496;-85
2023/03/04 03:15:32;;;;;;;15.98;0.77;;;5.80;99.90;;;;;;6218109;23;20086;-85
2023/03/04 03:17:57;;;;;;;13.63;0.60;;;5.80;99.90;;;;;;6217688;23;20000;-85
2023/03/04 03:20:23;;;;;;;10.18;0.80;;;5.80;99.90;;;;;;6217194;23;20022;-86
2023/03/04 03:22:48;;;;;;;13.05;0.80;;;5.80;99.90;;;;;;6217276;23;20095;-86
2023/03/04 03:25:15;;;;;;;9.90;0.47;;;5.80;99.90;;;;;;6217064;23;20004;-86
2023/03/04 03:27:40;;;;;;;10.57;0.63;;;5.80;99.90;;;;;;6217369;23;20008;-85
2023/03/04 03:30:09;;;;;;;15.02;0.82;;;5.80;99.90;;;;;;6218424;23;20011;-85
2023/03/04 03:32:34;;;;;;;9.90;0.73;;;5.80;99.90;;;;;;6217517;23;20004;-85
2023/03/04 03:35:00;;;;;;;10.32;0.70;;;5.80;99.90;;;;;;6217485;23;20519;-85
2023/03/04 03:37:26;;;;;;;9.32;0.60;;;5.80;99.90;;;;;;6218301;23;19997;-85
2023/03/04 03:39:51;;;;;;;11.48;0.77;;;5.80;99.90;;;;;;6218843;23;20338;-85
2023/03/04 03:42:17;;;;;;;7.97;0.60;;;5.80;99.90;;;;;;6216791;23;20426;-85
2023/03/04 03:44:42;;;;;;;9.73;0.93;;;5.80;99.90;;;;;;6243742;23;20004;-86
2023/03/04 03:47:08;;;;;;;14.60;0.63;;;5.80;99.90;;;;;;6216323;23;20004;-86
2023/03/04 03:49:33;;;;;;;10.38;0.70;;;5.80;99.90;;;;;;6217201;23;20066;-85
2023/03/04 03:51:59;;;;;;;12.80;0.60;;;5.80;99.90;;;;;;6217678;23;20083;-85
2023/03/04 03:54:24;;;;;;;15.35;1.35;;;5.80;99.90;;;;;;6216598;23;20027;-86
2023/03/04 03:56:50;;;;;;;16.20;0.75;;;5.80;99.90;;;;;;6217568;23;20023;-85
2023/03/04 03:59:15;;;;;;;7.65;0.98;;;5.70;99.90;;;;;;6216603;23;20004;-85
2023/03/04 04:01:41;;;;;;;10.35;0.40;;;5.70;99.90;;;;;;6216050;23;20034;-86
2023/03/04 04:04:06;;;;;;;9.00;0.57;;;5.70;99.90;;;;;;6217326;23;20008;-85
2023/03/04 04:06:32;;;;;;;15.23;0.80;;;5.70;99.90;;;;;;6217185;23;20000;-86
2023/03/04 04:08:57;;;;;;;12.35;1.13;;;5.70;99.90;;;;;;6217434;23;20008;-86
2023/03/04 04:11:23;;;;;;;7.75;0.60;;;5.80;99.90;;;;;;6243535;23;20751;-85
2023/03/04 04:13:48;;;;;;;7.97;0.70;;;5.70;99.90;;;;;;6217295;23;20435;-85
2023/03/04 04:16:14;;;;;;;9.38;0.50;;;5.70;99.90;;;;;;6216569;23;20326;-85
2023/03/04 04:18:39;;;;;;;7.20;0.68;;;5.70;99.90;;;;;;6217777;23;20014;-85
2023/03/04 04:21:05;;;;;;;10.13;0.52;;;5.70;99.90;;;;;;6215309;23;20446;-85
2023/03/04 04:23:31;;;;;;;12.25;0.60;;;5.70;99.90;;;;;;6217246;23;20012;-85
2023/03/04 04:25:57;;;;;;;7.93;0.50;;;5.70;99.90;;;;;;6216935;23;20815;-85
2023/03/04 04:28:23;;;;;;;9.77;1.70;;;5.70;99.90;;;;;;6216418;23;20008;-85
2023/03/04 04:30:49;;;;;;;12.13;0.73;;;5.70;99.90;;;;;;6215393;23;20000;-85
2023/03/04 04:33:15;;;;;;;11.20;1.05;;;5.70;99.90;;;;;;6216784;23;20013;-85
2023/03/04 04:35:41;;;;;;;9.80;0.50;;;5.70;99.90;;;;;;6215835;23;20019;-85
2023/03/04 04:38:07;;;;;;;5.75;0.40;;;5.70;99.90;;;;;;6215634;23;20395;-85
2023/03/04 04:40:33;;;;;;;9.15;0.93;;;5.70;99.90;;;;;;6216846;23;20004;-85
2023/03/04 04:42:59;;;;;;;9.00;0.60;;;5.70;99.90;;;;;;6245207;23;20314;-85
2023/03/04 04:45:24;;;;;;;9.23;0.40;;;5.70;99.90;;;;;;6216955;23;20011;-85
2023/03/04 04:47:51;;;;;;;8.00;0.52;;;5.70;99.90;;;;;;6216412;23;20000;-85
2023/03/04 04:50:17;;;;;;;12.15;0.85;;;5.70;99.90;;;;;;6215853;23;20004;-84
2023/03/04 04:52:42;;;;;;;14.38;0.40;;;5.70;99.90;;;;;;6216561;23;19996;-85
2023/03/04 04:55:08;;;;;;;10.32;0.82;;;5.60;99.90;;;;;;6215875;23;20016;-85
2023/03/04 04:57:34;;;;;;;15.23;1.08;;;5.70;99.90;;;;;;6215880;23;20027;-84
2023/03/04 05:00:00;;;;;;;10.95;1.02;;;5.70;99.90;;;;;;6216385;23;20423;-85
2023/03/04 05:02:25;;;;;;;8.20;0.85;;;5.70;99.90;;;;;;6216728;23;20087;-84
2023/03/04 05:04:51;;;;;;;8.40;0.60;;;5.70;99.90;;;;;;6216719;23;19996;-85
2023/03/04 05:07:17;;;;;;;11.43;0.50;;;5.60;99.90;;;;;;6216151;23;20350;-85
2023/03/04 05:09:43;;;;;;;11.38;0.45;;;5.60;99.90;;;;;;6216667;23;20003;-85
2023/03/04 05:12:08;;;;;;;11.20;0.43;;;5.70;99.90;;;;;;6241603;23;20046;-85
2023/03/04 05:14:34;;;;;;;9.57;0.50;;;5.70;99.90;;;;;;6217261;23;20091;-85
2023/03/04 05:16:59;;;;;;;13.25;0.50;;;5.60;99.90;;;;;;6214500;23;20004;-84
2023/03/04 05:19:25;;;;;;;13.75;0.43;;;5.60;99.90;;;;;;6217293;23;20000;-85
2023/03/04 05:21:50;;;;;;;5.47;0.40;;;5.60;99.90;;;;;;6244581;23;20000;-85
2023/03/04 05:24:16;;;;;;;7.63;0.50;;;5.60;99.90;;;;;;6217415;23;20039;-85
2023/03/04 05:26:41;;;;;;;8.20;1.05;;;5.60;99.90;;;;;;6244809;23;20001;-85
2023/03/04 05:29:07;;;;;;;7.25;0.30;;;5.60;99.90;;;;;;6215310;23;20004;-85
2023/03/04 05:31:32;;;;;;;6.18;0.32;;;5.60;99.90;;;;;;6215628;23;20009;-84
2023/03/04 05:33:58;;;;;;;6.95;0.40;;;5.60;99.90;;;;;;6215679;23;20350;-85
2023/03/04 05:36:23;;;;;;;5.40;0.65;;;5.60;99.90;;;;;;6217339;23;20000;-85
2023/03/04 05:38:49;;;;;;;5.50;0.88;;;5.60;99.90;;;;;;6216546;23;20004;-85
2023/03/04 05:41:17;;;;;;;7.93;0.60;;;5.60;99.90;;;;;;6217100;23;20038;-84
2023/03/04 05:43:43;;;;;;;11.55;0.40;;;5.60;99.90;;;;;;6217399;23;20012;-84
2023/03/04 05:46:13;;;;;;;5.68;0.30;;;5.60;99.90;;;;;;6216549;23;20054;-85
2023/03/04 05:48:39;;;;;;;7.80;0.52;;;5.60;99.90;;;;;;6217370;23;20050;-85
2023/03/04 05:51:05;;;;;;;8.63;0.68;;;5.60;99.90;;;;;;6216993;23;20000;-84
2023/03/04 05:53:30;;;;;;;9.95;1.02;;;5.60;99.90;;;;;;6244693;23;20051;-85
2023/03/04 05:55:58;;;;;;;9.93;1.10;;;5.60;99.90;;;;;;6217172;23;20000;-84
2023/03/04 05:58:23;;;;;;;8.88;0.50;;;5.60;99.90;;;;;;6217957;23;20004;-85
2023/03/04 06:00:49;;;;;;;6.43;0.40;;;5.60;99.90;;;;;;6217034;23;19996;-85
2023/03/04 06:03:20;;;;;;;9.57;0.60;;;5.60;99.90;;;;;;6244065;23;20004;-84
2023/03/04 06:05:46;;;;;;;7.10;0.40;;;5.60;99.90;;;;;;6217368;23;20438;-85
2023/03/04 06:08:12;;;;;;;7.30;0.40;;;5.60;99.90;;;;;;6216171;23;20044;-85
2023/03/04 06:10:39;;;;;;;7.00;0.40;;;5.60;99.90;;;;;;6218092;23;20011;-85
2023/03/04 06:13:05;;;;;;;7.05;0.50;;;5.50;99.90;;;;;;6217869;23;20007;-85
2023/03/04 06:15:31;;;;;;;11.38;0.70;;;5.50;99.90;;;;;;6244287;23;20012;-85
2023/03/04 06:17:56;;;;;;;11.60;0.68;;;5.50;99.90;;;;;;6214820;23;20628;-85
2023/03/04 06:20:22;;;;;;;9.70;0.40;;;5.50;99.90;;;;;;6239519;23;20012;-85
2023/03/04 06:22:47;;;;;;;4.90;0.93;;;5.60;99.90;;;;;;6215434;23;19996;-85
2023/03/04 06:25:13;;;;;;;9.00;0.50;;;5.60;99.90;;;;;;6242817;23;20374;-85
2023/03/04 06:27:39;;;;;;;9.95;0.38;;;5.50;99.90;;;;;;6218569;23;20015;-84
2023/03/04 06:30:05;;;;;;;6.18;0.40;;;5.50;99.90;;;;;;6216964;23;20035;-85
2023/03/04 06:32:31;;;;;;;6.25;0.57;;;5.50;99.90;;;;;;6243064;22;20008;-85
2023/03/04 06:34:56;;;;;;;8.65;0.60;;;5.60;99.90;;;;;;6244912;23;20008;-85
2023/03/04 06:37:22;;;;;;;5.75;0.60;;;5.50;99.90;;;;;;6217641;23;20078;-85
2023/03/04 06:39:47;;;;;;;6.03;0.47;;;5.50;99.90;;;;;;6217458;23;20527;-85
2023/03/04 06:42:13;;;;;;;7.28;0.50;;;5.50;99.90;;;;;;6216874;23;20007;-85
2023/03/04 06:44:39;;;;;;;9.02;0.52;;;5.50;99.90;;;;;;6216647;23;20095;-85
2023/03/04 06:47:04;;;;;;;9.93;0.60;;;5.50;99.90;;;;;;6217062;23;20035;-85
2023/03/04 06:49:30;;;;;;;8.25;0.50;;;5.50;99.90;;;;;;6217849;23;20336;-85
2023/03/04 06:51:56;;;;;;;6.15;0.70;;;5.50;99.90;;;;;;6217863;23;20007;-84
2023/03/04 06:54:21;;;;;;;6.00;0.60;;;5.50;99.90;;;;;;6217642;23;20012;-85
2023/03/04 06:56:47;;;;;;;6.95;0.40;;;5.50;99.90;;;;;;6217502;23;20078;-85
2023/03/04 06:59:12;;;;;;;5.93;0.77;;;5.50;99.90;;;;;;6217455;23;20000;-85
2023/03/04 07:01:38;;;;;;;8.48;0.60;;;5.50;99.90;;;;;;6216884;23;20087;-84
2023/03/04 07:04:04;;;;;;;6.93;0.77;;;5.50;99.90;;;;;;6217024;23;20693;-85
2023/03/04 07:06:29;;;;;;;8.00;0.50;;;5.60;99.90;;;;;;6245176;23;20006;-84
2023/03/04 07:08:56;;;;;;;7.70;0.50;;;5.50;99.90;;;;;;6217731;23;20508;-85
2023/03/04 07:11:22;;;;;;;11.05;0.75;;;5.50;99.90;;;;;;6217651;23;20442;-84
2023/03/04 07:13:49;;;;;;;13.45;0.40;;;5.60;99.90;;;;;;6245310;23;20079;-85
2023/03/04 07:16:17;;;;;;;5.78;0.40;;;5.60;99.90;;;;;;6216801;23;20027;-84
2023/03/04 07:18:43;;;;;;;8.52;1.75;;;5.60;99.90;;;;;;6213597;23;20461;-85
2023/03/04 07:21:09;;;;;;;3.72;0.43;;;5.60;99.90;;;;;;6217365;23;20405;-85
2023/03/04 07:23:35;;;;;;;10.63;0.60;;;5.60;99.90;;;;;;6216796;23;20008;-85
2023/03/04 07:26:01;;;;;;;8.07;0.47;;;5.60;99.90;;;;;;6246249;23;19996;-85
2023/03/04 07:28:27;;;;;;;9.40;0.40;;;5.60;99.90;;;;;;6218382;23;20028;-84
2023/03/04 07:30:53;;;;;;;6.32;0.40;;;5.60;99.90;;;;;;6217613;23;20058;-85
2023/03/04 07:33:18;;;;;;;10.25;0.40;;;5.70;99.90;;;;;;6245500;22;20000;-84
2023/03/04 07:35:44;;;;;;;6.82;0.57;;;5.70;99.90;;;;;;6220761;23;20033;-86
2023/03/04 07:38:09;;;;;;;7.30;0.70;;;5.60;99.90;;;;;;6218962;23;20000;-85
2023/03/04 07:40:36;;;;;;;12.07;0.60;;;5.70;99.90;;;;;;6215060;23;20092;-86
2023/03/04 07:43:01;;;;;;;7.38;0.60;;;5.70;99.90;;;;;;6218130;23;20004;-85
2023/03/04 07:45:27;;;;;;;5.68;1.50;;;5.70;99.90;;;;;;6218743;23;20007;-86
2023/03/04 07:47:53;;;;;;;11.88;0.63;;;5.80;99.90;;;;;;6218186;23;20000;-85
2023/03/04 07:50:19;;;;;;;7.13;0.60;;;5.80;99.90;;;;;;6217965;23;20039;-86
2023/03/04 07:52:47;;;;;;;7.68;1.67;;;5.90;99.90;;;;;;6217233;23;20004;-85
2023/03/04 07:55:14;;;;;;;10.63;0.63;;;5.80;99.90;;;;;;6217656;23;20019;-85
2023/03/04 07:57:42;;;;;;;6.47;0.47;;;5.80;99.90;;;;;;6218175;23;20004;-85
2023/03/04 08:00:09;;;;;;;5.78;0.40;;;5.70;99.90;;;;;;6214968;23;20019;-85
2023/03/04 08:02:34;;;;;;;9.45;0.55;;;5.70;99.90;;;;;;6246492;22;20028;-85
2023/03/04 08:05:00;;;;;;;8.20;1.10;;;5.70;99.90;;;;;;6218459;22;20011;-84
2023/03/04 08:07:25;;;;;;;13.60;1.30;;;5.80;99.90;;;;;;6216683;23;20001;-85
2023/03/04 08:09:51;;;;;;;6.47;0.60;;;5.90;99.90;;;;;;6243968;23;20075;-85
2023/03/04 08:12:17;;;;;;;7.72;0.70;;;6.00;99.90;;;;;;6217073;23;20155;-85
2023/03/04 08:14:42;;;;;;;7.13;0.55;;;6.00;99.90;;;;;;6217985;23;20012;-85
2023/03/04 08:17:08;;;;;;;5.05;0.40;;;6.10;99.90;;;;;;6217191;23;19996;-86
2023/03/04 08:19:34;;;;;;;8.55;0.60;;;6.10;99.90;;;;;;6217937;23;20070;-85
2023/03/04 08:22:00;;;;;;;11.02;0.50;;;6.20;99.90;;;;;;6217500;23;20016;-85
2023/03/04 08:24:26;;;;;;;10.90;0.43;;;6.30;99.90;;;;;;6217904;23;20032;-86
2023/03/04 08:26:51;;;;;;;7.47;0.57;;;6.30;99.90;;;;;;6216822;23;20008;-86
2023/03/04 08:29:20;;;;;;;2.67;0.30;;;6.40;99.90;;;;;;6215675;23;20022;-85
2023/03/04 08:31:47;;;;;;;5.53;0.63;;;6.40;99.90;;;;;;6216559;22;20099;-85
2023/03/04 08:34:13;;;;;;;7.50;0.40;;;6.40;99.90;;;;;;6214738;23;20442;-86
2023/03/04 08:36:41;;;;;;;2.40;0.30;;;6.50;99.90;;;;;;6214723;23;20004;-86
2023/03/04 08:39:08;;;;;;;4.93;0.50;;;6.50;99.90;;;;;;6215866;23;20031;-86
2023/03/04 08:41:34;;;;;;;4.60;0.32;;;6.40;99.90;;;;;;6216744;23;20031;-85
2023/03/04 08:44:00;;;;;;;3.28;0.45;;;6.50;99.90;;;;;;6215687;22;20015;-86
2023/03/04 08:46:26;;;;;;;5.88;0.50;;;6.50;99.90;;;;;;6215327;23;20008;-86
2023/03/04 08:48:51;;;;;;;6.00;0.40;;;6.60;99.90;;;;;;6216857;23;20503;-86
2023/03/04 08:51:17;;;;;;;7.20;0.45;;;6.70;99.90;;;;;;6216927;23;20004;-85
2023/03/04 08:53:43;;;;;;;4.65;0.32;;;6.70;99.90;;;;;;6215625;23;20038;-85
2023/03/04 08:56:09;;;;;;;4.45;0.40;;;6.70;99.90;;;;;;6215525;23;20008;-86
2023/03/04 08:58:35;;;;;;;6.97;1.30;;;6.80;99.90;;;;;;6216612;23;20043;-86
2023/03/04 09:01:02;;;;;;;8.93;0.50;;;6.80;99.90;;;;;;6213610;22;20012;-85
2023/03/04 09:03:28;;;;;;;7.60;0.40;;;6.90;99.90;;;;;;6216332;23;20004;-86
2023/03/04 09:05:53;;;;;;;6.63;0.50;;;6.90;99.90;;;;;;6216444;23;20307;-85
2023/03/04 09:08:19;;;;;;;4.45;0.60;;;7.00;99.90;;;;;;6216483;23;20008;-85
2023/03/04 09:10:45;;;;;;;4.55;0.63;;;7.10;99.90;;;;;;6216982;23;20004;-85
2023/03/04 09:13:14;;;;;;;5.80;0.50;;;7.10;99.90;;;;;;6216099;23;20158;-85
2023/03/04 09:15:45;;;;;;;5.72;0.50;;;7.20;99.90;;;;;;6216708;23;20423;-85
2023/03/04 09:18:11;;;;;;;3.90;0.40;;;7.20;99.90;;;;;;6213689;23;20011;-86
2023/03/04 09:20:37;;;;;;;9.73;0.50;;;7.20;99.90;;;;;;6215317;23;20020;-86
2023/03/04 09:23:02;;;;;;;7.70;0.40;;;7.30;99.90;;;;;;6217039;23;20028;-85
2023/03/04 09:25:28;;;;;;;5.03;0.63;;;7.30;99.90;;;;;;6218368;23;20012;-86
2023/03/04 09:27:54;;;;;;;4.60;0.50;;;7.40;99.90;;;;;;6216403;22;20058;-86
2023/03/04 09:30:19;;;;;;;4.18;0.88;;;7.40;99.90;;;;;;6216427;23;20001;-86
2023/03/04 09:32:45;;;;;;;5.10;0.60;;;7.40;99.90;;;;;;6217914;23;19996;-85
2023/03/04 09:35:11;;;;;;;2.72;0.40;;;7.30;99.90;;;;;;6214879;22;20169;-86
2023/03/04 09:37:37;;;;;;;3.58;0.50;;;7.30;99.90;;;;;;6216565;23;20338;-86
2023/03/04 09:40:04;;;;;;;3.72;0.50;;;7.40;99.90;;;;;;6216066;22;20078;-92
2023/03/04 09:42:42;;;;;;;3.42;0.40;;;7.50;99.90;;;;;;6193766;23;20434;-85
2023/03/04 09:45:17;;;;;;;4.00;0.30;;;7.50;99.90;;;;;;6218056;23;20008;-86
2023/03/04 09:47:43;;;;;;;2.25;0.30;;;7.40;99.90;;;;;;6217999;23;20092;-86
2023/03/04 09:50:11;;;;;;;8.27;0.50;;;7.40;99.90;;;;;;6218674;23;20335;-85
2023/03/04 09:53:14;;;;;;;4.63;0.30;;;7.30;99.90;;;;;;6219043;23;20004;-85
2023/03/04 09:55:40;;;;;;;;;;;7.30;99.90;;;;;;6219337;23;20035;-85
2023/03/04 09:58:25;;;;;;;3.92;0.40;;;7.30;99.90;;;;;;6218067;23;19974;-86
2023/03/04 10:00:58;;;;;;;3.92;0.40;;;7.20;99.90;;;;;;6220701;23;20004;-85
2023/03/04 10:03:24;;;;;;;;;;;7.00;99.90;;;;;;6221780;23;20492;-86
2023/03/04 10:05:59;;;;;;;4.13;0.80;;;7.00;99.90;;;;;;6221152;23;19923;-86
2023/03/04 10:08:46;;;;;;;4.10;0.40;;;7.10;99.90;;;;;;6219311;23;20054;-85
2023/03/04 10:11:44;;;;;;;2.10;0.50;;;7.30;99.90;;;;;;6219719;23;20011;-86
2023/03/04 10:14:26;;;;;;;2.05;0.40;;;7.50;99.90;;;;;;6245528;23;20093;-86
2023/03/04 10:17:20;;;;;;;3.28;0.50;;;7.60;99.90;;;;;;6220222;23;20000;-86
2023/03/04 10:19:57;;;;;;;5.00;0.38;;;7.80;99.90;;;;;;6216184;23;20020;-85
2023/03/04 10:22:33;;;;;;;1.77;0.38;;;7.90;99.90;;;;;;6220334;23;20399;-86
2023/03/04 10:25:13;;;;;;;2.65;0.20;;;7.80;99.90;;;;;;6220448;23;20007;-85
2023/03/04 10:27:39;;;;;;;1.95;0.30;;;7.80;99.90;;;;;;6221082;23;20054;-85
2023/03/04 10:30:30;;;;;;;2.38;0.30;;;7.90;99.90;;;;;;6220636;23;20004;-86
2023/03/04 10:32:56;;;;;;;3.25;0.32;;;7.90;99.90;;;;;;6184046;23;20012;-85
2023/03/04 10:35:30;;;;;;;5.68;0.50;;;7.90;99.90;;;;;;6218902;23;20012;-85
2023/03/04 10:38:01;;;;;;;3.42;0.45;;;8.00;99.90;;;;;;6218804;23;19996;-85
2023/03/04 10:40:27;;;;;;;4.95;0.60;;;8.10;99.90;;;;;;6218811;23;20342;-86
2023/03/04 10:42:54;;;;;;;3.08;0.40;;;8.10;99.90;;;;;;6220054;23;20083;-85
2023/03/04 10:45:25;;;;;;;3.60;0.40;;;8.10;99.90;;;;;;6220429;23;20034;-85
2023/03/04 10:47:55;;;;;;;2.80;0.30;;;8.20;99.90;;;;;;6223487;23;20000;-84
2023/03/04 10:50:27;;;;;;;1.83;0.30;;;8.30;99.90;;;;;;6217730;23;20012;-86
2023/03/04 10:52:54;;;;;;;5.05;0.50;;;8.20;99.90;;;;;;6218158;23;20004;-84
2023/03/04 10:55:49;;;;;;;4.57;0.30;;;8.20;99.90;;;;;;6217792;23;20016;-86
2023/03/04 10:58:19;;;;;;;4.28;0.45;;;8.10;99.90;;;;;;6190816;23;20008;-86
2023/03/04 11:01:04;;;;;;;4.13;0.32;;;8.00;99.90;;;;;;6217710;23;20010;-87
2023/03/04 11:03:34;;;;;;;3.50;0.30;;;8.00;99.90;;;;;;6218287;23;20000;-86
2023/03/04 11:06:14;;;;;;;1.40;0.28;;;8.00;99.90;;;;;;6218441;23;20099;-86
2023/03/04 11:08:40;;;;;;;2.60;0.30;;;8.10;99.90;;;;;;6217344;23;20397;-86
2023/03/04 11:11:36;;;;;;;1.35;0.20;;;8.30;99.90;;;;;;6243152;23;20024;-86
2023/03/04 11:14:16;;;;;;;4.07;0.35;;;8.50;99.90;;;;;;6217963;23;20131;-84
2023/03/04 11:16:52;;;;;;;2.40;0.30;;;8.50;99.90;;;;;;6217243;23;20012;-87
2023/03/04 11:19:20;;;;;;;0.85;0.30;;;8.40;99.90;;;;;;6217682;23;20008;-87
2023/03/04 11:21:47;;;;;;;3.67;0.60;;;8.30;99.90;;;;;;6218340;23;20007;-87
2023/03/04 11:24:25;;;;;;;2.83;0.40;;;8.30;99.90;;;;;;6217018;23;20035;-86
2023/03/04 11:27:42;;;;;;;1.05;0.30;;;8.40;99.90;;;;;;6218341;23;20004;-84
2023/03/04 11:30:35;;;;;;;2.42;0.40;;;8.40;99.90;;;;;;6136135;23;20043;-85
2023/03/04 11:33:28;;;;;;;2.45;0.30;;;8.30;99.90;;;;;;6217121;23;20034;-86
2023/03/04 11:36:11;;;;;;;1.40;0.30;;;8.30;99.90;;;;;;6244474;23;20008;-86
2023/03/04 11:38:43;;;;;;;5.00;0.40;;;8.40;99.90;;;;;;6217780;23;20000;-84
2023/03/04 11:41:29;;;;;;;2.28;0.35;;;8.40;99.90;;;;;;6217416;23;20004;-87
2023/03/04 11:43:54;;;;;;;4.63;0.47;;;8.50;99.90;;;;;;6242756;23;20019;-87
2023/03/04 11:46:45;;;;;;;0.77;0.30;;;8.80;99.90;;;;;;6217540;23;20004;-86
2023/03/04 11:49:41;;;;;;;1.33;0.30;;;9.00;99.90;;;;;;6244457;23;20001;-86
2023/03/04 11:52:13;;;;;;;1.42;0.22;;;9.00;99.90;;;;;;6218027;23;20346;-85
2023/03/04 11:54:57;;;;;;;1.67;0.30;;;8.90;99.90;;;;;;6215335;23;20044;-85
2023/03/04 11:57:48;;;;;;;1.50;0.40;;;8.80;99.90;;;;;;6216836;23;20054;-84
2023/03/04 12:00:45;;;;;;;1.05;0.20;;;8.80;99.90;;;;;;6219080;22;20088;-86
2023/03/04 12:03:38;;;;;;;1.85;0.20;;;8.80;99.90;;;;;;6218066;23;20040;-86
2023/03/04 12:06:23;;;;;;;1.80;0.40;;;8.80;99.90;;;;;;6214408;23;20400;-83
2023/03/04 12:09:11;;;;;;;0.43;0.20;;;8.90;99.90;;;;;;6220411;23;20450;-86
2023/03/04 12:12:02;;;;;;;1.92;0.38;;;8.90;99.90;;;;;;6219384;23;20043;-86
2023/03/04 12:14:55;;;;;;;0.95;0.30;;;9.00;99.90;;;;;;6219154;23;20016;-86
2023/03/04 12:17:46;;;;;;;1.90;0.20;;;8.90;99.90;;;;;;6220233;23;20098;-85
2023/03/04 12:20:25;;;;;;;1.33;0.20;;;8.90;99.90;;;;;;6218647;23;20031;-86
2023/03/04 12:23:11;;;;;;;2.70;0.30;;;8.80;99.90;;;;;;6218797;23;20086;-85
2023/03/04 12:25:49;;;;;;;1.27;0.30;;;8.70;99.90;;;;;;6220609;23;20016;-86
2023/03/04 12:28:35;;;;;;;2.70;0.30;;;8.60;99.90;;;;;;6219865;23;20039;-85
2023/03/04 12:31:19;;;;;;;4.13;0.55;;;8.50;99.90;;;;;;6218069;23;20007;-85
2023/03/04 12:34:26;;;;;;;2.25;0.20;;;8.50;99.90;;;;;;6219419;23;20038;-85
2023/03/04 12:37:11;;;;;;;1.80;0.20;;;8.30;99.90;;;;;;6219920;23;20062;-86
2023/03/04 12:40:05;;;;;;;1.83;0.20;;;7.90;99.90;;;;;;6219899;23;20346;-86
2023/03/04 12:42:42;;;;;;;2.42;0.20;;;7.60;99.90;;;;;;6220124;23;20500;-86
2023/03/04 12:45:21;;;;;;;3.50;0.17;;;7.50;99.90;;;;;;6218501;23;20028;-87
2023/03/04 12:48:08;;;;;;;2.15;0.10;;;7.50;99.90;;;;;;6219866;23;20008;-86
2023/03/04 12:51:00;;;;;;;3.90;0.20;;;7.60;99.90;;;;;;6246630;23;20008;-86
2023/03/04 12:53:36;;;;;;;4.63;0.30;;;7.80;99.90;;;;;;6218884;23;20036;-86
2023/03/04 12:56:03;;;;;;;4.35;0.30;;;8.10;99.90;;;;;;6219146;23;20337;-87
2023/03/04 12:58:32;;;;;;;1.98;0.20;;;8.20;99.90;;;;;;6219266;23;20008;-87
2023/03/04 13:01:14;;;;;;;3.90;0.20;;;8.40;99.90;;;;;;6218267;23;20445;-87
2023/03/04 13:03:55;;;;;;;1.92;0.20;;;8.60;99.90;;;;;;6219560;23;20455;-86
2023/03/04 13:06:23;;;;;;;1.08;0.50;;;8.70;99.90;;;;;;6216893;23;20012;-86